sensor_id;sensor_type;location;lat;lon;timestamp;P1;durP1;ratioP1;P2;durP2;ratioP2
73980;SDS011;62348;51.412;5.436;2023-09-30T00:00:42;10.93;;;5.72;;
73980;SDS011;62348;51.412;5.436;2023-09-30T00:03:10;10.55;;;5.47;;
73980;SDS011;62348;51.412;5.436;2023-09-30T00:05:36;11.38;;;6.18;;
73980;SDS011;62348;51.412;5.436;2023-09-30T00:08:02;8.85;;;5.57;;
73980;SDS011;62348;51.412;5.436;2023-09-30T00:10:28;11.45;;;6.38;;
73980;SDS011;62348;51.412;5.436;2023-09-30T00:12:55;8.80;;;6.30;;
73980;SDS011;62348;51.412;5.436;2023-09-30T00:15:21;12.27;;;6.50;;
73980;SDS011;62348;51.412;5.436;2023-09-30T00:17:46;10.40;;;6.45;;
73980;SDS011;62348;51.412;5.436;2023-09-30T00:20:12;10.18;;;6.53;;
73980;SDS011;62348;51.412;5.436;2023-09-30T00:22:39;10.48;;;6.82;;
73980;SDS011;62348;51.412;5.436;2023-09-30T00:25:05;11.02;;;6.45;;
73980;SDS011;62348;51.412;5.436;2023-09-30T00:27:31;12.20;;;7.05;;
73980;SDS011;62348;51.412;5.436;2023-09-30T00:29:57;10.35;;;6.85;;
73980;SDS011;62348;51.412;5.436;2023-09-30T00:32:22;11.55;;;6.80;;
73980;SDS011;62348;51.412;5.436;2023-09-30T00:34:48;9.85;;;6.38;;
73980;SDS011;62348;51.412;5.436;2023-09-30T00:37:14;12.13;;;7.00;;
73980;SDS011;62348;51.412;5.436;2023-09-30T00:39:39;11.25;;;6.80;;
73980;SDS011;62348;51.412;5.436;2023-09-30T00:42:04;10.00;;;7.40;;
73980;SDS011;62348;51.412;5.436;2023-09-30T00:44:30;13.20;;;7.30;;
73980;SDS011;62348;51.412;5.436;2023-09-30T00:46:56;9.07;;;6.65;;
73980;SDS011;62348;51.412;5.436;2023-09-30T00:49:22;13.95;;;7.82;;
73980;SDS011;62348;51.412;5.436;2023-09-30T00:51:49;9.95;;;7.70;;
73980;SDS011;62348;51.412;5.436;2023-09-30T00:54:15;10.95;;;7.47;;
73980;SDS011;62348;51.412;5.436;2023-09-30T00:56:45;13.02;;;7.22;;
73980;SDS011;62348;51.412;5.436;2023-09-30T00:59:15;12.02;;;7.22;;
73980;SDS011;62348;51.412;5.436;2023-09-30T01:01:41;10.52;;;7.50;;
73980;SDS011;62348;51.412;5.436;2023-09-30T01:04:09;10.90;;;7.72;;
73980;SDS011;62348;51.412;5.436;2023-09-30T01:06:35;10.15;;;7.85;;
73980;SDS011;62348;51.412;5.436;2023-09-30T01:09:00;13.07;;;7.63;;
73980;SDS011;62348;51.412;5.436;2023-09-30T01:11:26;13.38;;;7.93;;
73980;SDS011;62348;51.412;5.436;2023-09-30T01:13:51;12.30;;;7.60;;
73980;SDS011;62348;51.412;5.436;2023-09-30T01:16:17;12.32;;;7.82;;
73980;SDS011;62348;51.412;5.436;2023-09-30T01:18:42;10.88;;;7.47;;
73980;SDS011;62348;51.412;5.436;2023-09-30T01:21:08;11.05;;;7.72;;
73980;SDS011;62348;51.412;5.436;2023-09-30T01:23:34;10.63;;;7.38;;
73980;SDS011;62348;51.412;5.436;2023-09-30T01:26:04;13.40;;;7.72;;
73980;SDS011;62348;51.412;5.436;2023-09-30T01:28:31;11.88;;;7.95;;
73980;SDS011;62348;51.412;5.436;2023-09-30T01:30:57;10.73;;;7.85;;
73980;SDS011;62348;51.412;5.436;2023-09-30T01:33:23;14.27;;;8.02;;
73980;SDS011;62348;51.412;5.436;2023-09-30T01:35:49;13.07;;;8.23;;
73980;SDS011;62348;51.412;5.436;2023-09-30T01:38:14;11.70;;;7.65;;
73980;SDS011;62348;51.412;5.436;2023-09-30T01:40:39;11.30;;;8.02;;
73980;SDS011;62348;51.412;5.436;2023-09-30T01:43:05;14.25;;;8.70;;
73980;SDS011;62348;51.412;5.436;2023-09-30T01:45:30;11.73;;;8.60;;
73980;SDS011;62348;51.412;5.436;2023-09-30T01:47:56;12.95;;;8.02;;
73980;SDS011;62348;51.412;5.436;2023-09-30T01:50:21;15.45;;;8.38;;
73980;SDS011;62348;51.412;5.436;2023-09-30T01:52:47;12.15;;;8.57;;
73980;SDS011;62348;51.412;5.436;2023-09-30T01:55:12;12.40;;;8.38;;
73980;SDS011;62348;51.412;5.436;2023-09-30T01:57:37;12.23;;;8.38;;
73980;SDS011;62348;51.412;5.436;2023-09-30T02:00:03;12.90;;;8.65;;
73980;SDS011;62348;51.412;5.436;2023-09-30T02:02:30;13.43;;;8.57;;
73980;SDS011;62348;51.412;5.436;2023-09-30T02:04:56;12.00;;;9.48;;
73980;SDS011;62348;51.412;5.436;2023-09-30T02:07:22;11.13;;;8.63;;
73980;SDS011;62348;51.412;5.436;2023-09-30T02:09:47;12.95;;;9.25;;
73980;SDS011;62348;51.412;5.436;2023-09-30T02:12:14;13.63;;;9.48;;
73980;SDS011;62348;51.412;5.436;2023-09-30T02:14:39;13.82;;;9.57;;
73980;SDS011;62348;51.412;5.436;2023-09-30T02:17:05;14.95;;;10.20;;
73980;SDS011;62348;51.412;5.436;2023-09-30T02:19:30;14.32;;;9.60;;
73980;SDS011;62348;51.412;5.436;2023-09-30T02:21:57;15.10;;;11.15;;
73980;SDS011;62348;51.412;5.436;2023-09-30T02:24:24;16.63;;;10.43;;
73980;SDS011;62348;51.412;5.436;2023-09-30T02:26:49;14.32;;;10.05;;
73980;SDS011;62348;51.412;5.436;2023-09-30T02:29:15;14.48;;;10.18;;
73980;SDS011;62348;51.412;5.436;2023-09-30T02:31:40;13.50;;;9.45;;
73980;SDS011;62348;51.412;5.436;2023-09-30T02:34:06;13.80;;;9.98;;
73980;SDS011;62348;51.412;5.436;2023-09-30T02:36:32;17.55;;;10.02;;
73980;SDS011;62348;51.412;5.436;2023-09-30T02:38:58;20.77;;;11.38;;
73980;SDS011;62348;51.412;5.436;2023-09-30T02:41:23;19.25;;;10.88;;
73980;SDS011;62348;51.412;5.436;2023-09-30T02:43:48;19.65;;;11.32;;
73980;SDS011;62348;51.412;5.436;2023-09-30T02:46:14;17.38;;;10.63;;
73980;SDS011;62348;51.412;5.436;2023-09-30T02:48:40;15.30;;;11.35;;
73980;SDS011;62348;51.412;5.436;2023-09-30T02:51:09;14.75;;;10.15;;
73980;SDS011;62348;51.412;5.436;2023-09-30T02:53:35;14.77;;;10.13;;
73980;SDS011;62348;51.412;5.436;2023-09-30T02:56:01;15.40;;;10.90;;
73980;SDS011;62348;51.412;5.436;2023-09-30T02:58:26;16.05;;;10.65;;
73980;SDS011;62348;51.412;5.436;2023-09-30T03:00:52;16.30;;;10.45;;
73980;SDS011;62348;51.412;5.436;2023-09-30T03:03:18;15.75;;;10.30;;
73980;SDS011;62348;51.412;5.436;2023-09-30T03:05:43;15.60;;;10.45;;
73980;SDS011;62348;51.412;5.436;2023-09-30T03:08:10;16.23;;;10.75;;
73980;SDS011;62348;51.412;5.436;2023-09-30T03:10:36;18.52;;;10.63;;
73980;SDS011;62348;51.412;5.436;2023-09-30T03:13:05;16.20;;;10.15;;
73980;SDS011;62348;51.412;5.436;2023-09-30T03:15:32;13.88;;;10.77;;
73980;SDS011;62348;51.412;5.436;2023-09-30T03:17:57;14.73;;;10.90;;
73980;SDS011;62348;51.412;5.436;2023-09-30T03:20:24;15.90;;;11.55;;
73980;SDS011;62348;51.412;5.436;2023-09-30T03:22:50;19.83;;;11.65;;
73980;SDS011;62348;51.412;5.436;2023-09-30T03:25:17;17.42;;;12.30;;
73980;SDS011;62348;51.412;5.436;2023-09-30T03:27:45;19.00;;;12.23;;
73980;SDS011;62348;51.412;5.436;2023-09-30T03:30:12;22.38;;;11.23;;
73980;SDS011;62348;51.412;5.436;2023-09-30T03:32:38;19.00;;;12.45;;
73980;SDS011;62348;51.412;5.436;2023-09-30T03:35:07;15.98;;;11.65;;
73980;SDS011;62348;51.412;5.436;2023-09-30T03:37:35;17.88;;;12.43;;
73980;SDS011;62348;51.412;5.436;2023-09-30T03:40:03;19.33;;;12.25;;
73980;SDS011;62348;51.412;5.436;2023-09-30T03:42:38;16.58;;;11.45;;
73980;SDS011;62348;51.412;5.436;2023-09-30T03:45:05;16.70;;;11.32;;
73980;SDS011;62348;51.412;5.436;2023-09-30T03:47:33;16.58;;;12.38;;
73980;SDS011;62348;51.412;5.436;2023-09-30T03:50:00;19.35;;;11.98;;
73980;SDS011;62348;51.412;5.436;2023-09-30T03:52:26;15.25;;;12.07;;
73980;SDS011;62348;51.412;5.436;2023-09-30T03:54:52;16.70;;;11.35;;
73980;SDS011;62348;51.412;5.436;2023-09-30T03:57:18;17.20;;;11.32;;
73980;SDS011;62348;51.412;5.436;2023-09-30T03:59:44;19.00;;;12.35;;
73980;SDS011;62348;51.412;5.436;2023-09-30T04:02:11;15.68;;;11.38;;
73980;SDS011;62348;51.412;5.436;2023-09-30T04:04:36;17.13;;;10.10;;
73980;SDS011;62348;51.412;5.436;2023-09-30T04:07:02;14.20;;;11.05;;
73980;SDS011;62348;51.412;5.436;2023-09-30T04:09:31;15.75;;;11.80;;
73980;SDS011;62348;51.412;5.436;2023-09-30T04:11:57;15.98;;;11.38;;
73980;SDS011;62348;51.412;5.436;2023-09-30T04:14:23;18.65;;;12.55;;
73980;SDS011;62348;51.412;5.436;2023-09-30T04:16:50;14.68;;;10.90;;
73980;SDS011;62348;51.412;5.436;2023-09-30T04:19:15;17.02;;;11.60;;
73980;SDS011;62348;51.412;5.436;2023-09-30T04:21:40;21.23;;;11.82;;
73980;SDS011;62348;51.412;5.436;2023-09-30T04:24:06;15.65;;;10.10;;
73980;SDS011;62348;51.412;5.436;2023-09-30T04:26:32;17.95;;;11.55;;
73980;SDS011;62348;51.412;5.436;2023-09-30T04:28:57;20.38;;;11.48;;
73980;SDS011;62348;51.412;5.436;2023-09-30T04:31:23;16.75;;;12.00;;
73980;SDS011;62348;51.412;5.436;2023-09-30T04:33:51;15.55;;;11.13;;
73980;SDS011;62348;51.412;5.436;2023-09-30T04:36:17;19.73;;;12.10;;
73980;SDS011;62348;51.412;5.436;2023-09-30T04:38:43;15.65;;;11.32;;
73980;SDS011;62348;51.412;5.436;2023-09-30T04:41:08;17.05;;;12.23;;
73980;SDS011;62348;51.412;5.436;2023-09-30T04:43:34;18.98;;;11.80;;
73980;SDS011;62348;51.412;5.436;2023-09-30T04:46:00;17.63;;;11.95;;
73980;SDS011;62348;51.412;5.436;2023-09-30T04:48:26;13.60;;;9.63;;
73980;SDS011;62348;51.412;5.436;2023-09-30T04:50:51;15.30;;;10.65;;
73980;SDS011;62348;51.412;5.436;2023-09-30T04:53:17;15.48;;;11.45;;
73980;SDS011;62348;51.412;5.436;2023-09-30T04:55:43;16.30;;;10.75;;
73980;SDS011;62348;51.412;5.436;2023-09-30T04:58:09;15.65;;;10.43;;
73980;SDS011;62348;51.412;5.436;2023-09-30T05:00:36;15.45;;;10.48;;
73980;SDS011;62348;51.412;5.436;2023-09-30T05:03:01;14.85;;;10.73;;
73980;SDS011;62348;51.412;5.436;2023-09-30T05:05:27;16.92;;;11.00;;
73980;SDS011;62348;51.412;5.436;2023-09-30T05:07:53;15.95;;;11.15;;
73980;SDS011;62348;51.412;5.436;2023-09-30T05:10:20;14.63;;;10.50;;
73980;SDS011;62348;51.412;5.436;2023-09-30T05:12:45;15.75;;;11.50;;
73980;SDS011;62348;51.412;5.436;2023-09-30T05:15:12;16.85;;;11.57;;
73980;SDS011;62348;51.412;5.436;2023-09-30T05:17:38;14.95;;;11.32;;
73980;SDS011;62348;51.412;5.436;2023-09-30T05:20:04;18.20;;;11.85;;
73980;SDS011;62348;51.412;5.436;2023-09-30T05:22:32;18.05;;;11.02;;
73980;SDS011;62348;51.412;5.436;2023-09-30T05:24:58;17.98;;;11.27;;
73980;SDS011;62348;51.412;5.436;2023-09-30T05:27:24;19.33;;;11.60;;
73980;SDS011;62348;51.412;5.436;2023-09-30T05:29:49;16.15;;;10.82;;
73980;SDS011;62348;51.412;5.436;2023-09-30T05:32:15;17.05;;;10.52;;
73980;SDS011;62348;51.412;5.436;2023-09-30T05:34:40;16.85;;;11.70;;
73980;SDS011;62348;51.412;5.436;2023-09-30T05:37:06;15.88;;;10.68;;
73980;SDS011;62348;51.412;5.436;2023-09-30T05:39:31;16.75;;;11.23;;
73980;SDS011;62348;51.412;5.436;2023-09-30T05:41:57;17.02;;;11.77;;
73980;SDS011;62348;51.412;5.436;2023-09-30T05:44:26;17.77;;;12.23;;
73980;SDS011;62348;51.412;5.436;2023-09-30T05:46:52;16.17;;;10.80;;
73980;SDS011;62348;51.412;5.436;2023-09-30T05:49:18;18.60;;;10.85;;
73980;SDS011;62348;51.412;5.436;2023-09-30T05:51:44;18.33;;;11.52;;
73980;SDS011;62348;51.412;5.436;2023-09-30T05:54:10;14.80;;;10.90;;
73980;SDS011;62348;51.412;5.436;2023-09-30T05:56:36;15.30;;;11.38;;
73980;SDS011;62348;51.412;5.436;2023-09-30T05:59:03;19.33;;;12.25;;
73980;SDS011;62348;51.412;5.436;2023-09-30T06:01:30;12.85;;;10.90;;
73980;SDS011;62348;51.412;5.436;2023-09-30T06:03:57;18.83;;;11.35;;
73980;SDS011;62348;51.412;5.436;2023-09-30T06:06:22;15.15;;;10.48;;
73980;SDS011;62348;51.412;5.436;2023-09-30T06:08:49;15.82;;;10.82;;
73980;SDS011;62348;51.412;5.436;2023-09-30T06:11:18;14.50;;;11.05;;
73980;SDS011;62348;51.412;5.436;2023-09-30T06:13:44;17.95;;;11.15;;
73980;SDS011;62348;51.412;5.436;2023-09-30T06:16:11;15.30;;;11.02;;
73980;SDS011;62348;51.412;5.436;2023-09-30T06:18:37;17.40;;;11.02;;
73980;SDS011;62348;51.412;5.436;2023-09-30T06:21:03;14.95;;;10.75;;
73980;SDS011;62348;51.412;5.436;2023-09-30T06:23:29;15.00;;;10.93;;
73980;SDS011;62348;51.412;5.436;2023-09-30T06:25:55;15.15;;;10.65;;
73980;SDS011;62348;51.412;5.436;2023-09-30T06:28:21;18.65;;;11.48;;
73980;SDS011;62348;51.412;5.436;2023-09-30T06:30:51;16.48;;;11.52;;
73980;SDS011;62348;51.412;5.436;2023-09-30T06:33:17;16.30;;;11.85;;
73980;SDS011;62348;51.412;5.436;2023-09-30T06:35:42;18.05;;;11.77;;
73980;SDS011;62348;51.412;5.436;2023-09-30T06:40:41;17.70;;;11.02;;
73980;SDS011;62348;51.412;5.436;2023-09-30T06:43:07;18.98;;;10.50;;
73980;SDS011;62348;51.412;5.436;2023-09-30T06:45:34;16.08;;;10.45;;
73980;SDS011;62348;51.412;5.436;2023-09-30T06:47:59;16.15;;;11.20;;
73980;SDS011;62348;51.412;5.436;2023-09-30T06:50:25;17.80;;;11.85;;
73980;SDS011;62348;51.412;5.436;2023-09-30T06:52:50;16.30;;;11.57;;
73980;SDS011;62348;51.412;5.436;2023-09-30T06:55:15;15.25;;;11.05;;
73980;SDS011;62348;51.412;5.436;2023-09-30T06:57:44;17.65;;;11.30;;
73980;SDS011;62348;51.412;5.436;2023-09-30T07:00:10;19.10;;;11.93;;
73980;SDS011;62348;51.412;5.436;2023-09-30T07:02:37;19.08;;;12.00;;
73980;SDS011;62348;51.412;5.436;2023-09-30T07:05:10;18.23;;;11.95;;
73980;SDS011;62348;51.412;5.436;2023-09-30T07:10:01;17.80;;;11.45;;
73980;SDS011;62348;51.412;5.436;2023-09-30T07:12:29;20.30;;;12.18;;
73980;SDS011;62348;51.412;5.436;2023-09-30T07:14:55;16.30;;;11.48;;
73980;SDS011;62348;51.412;5.436;2023-09-30T07:17:21;21.95;;;12.50;;
73980;SDS011;62348;51.412;5.436;2023-09-30T07:19:46;19.55;;;12.23;;
73980;SDS011;62348;51.412;5.436;2023-09-30T07:22:11;18.40;;;12.40;;
73980;SDS011;62348;51.412;5.436;2023-09-30T07:24:38;18.77;;;11.55;;
73980;SDS011;62348;51.412;5.436;2023-09-30T07:27:04;22.98;;;12.05;;
73980;SDS011;62348;51.412;5.436;2023-09-30T07:29:29;21.95;;;11.25;;
73980;SDS011;62348;51.412;5.436;2023-09-30T07:31:55;17.48;;;11.40;;
73980;SDS011;62348;51.412;5.436;2023-09-30T07:34:20;17.63;;;11.98;;
73980;SDS011;62348;51.412;5.436;2023-09-30T07:36:46;23.02;;;12.65;;
73980;SDS011;62348;51.412;5.436;2023-09-30T07:39:11;18.77;;;11.73;;
73980;SDS011;62348;51.412;5.436;2023-09-30T07:41:37;19.23;;;11.02;;
73980;SDS011;62348;51.412;5.436;2023-09-30T07:44:03;22.48;;;11.20;;
73980;SDS011;62348;51.412;5.436;2023-09-30T07:46:30;21.27;;;12.07;;
73980;SDS011;62348;51.412;5.436;2023-09-30T07:48:55;20.75;;;11.60;;
73980;SDS011;62348;51.412;5.436;2023-09-30T07:51:21;22.65;;;12.38;;
73980;SDS011;62348;51.412;5.436;2023-09-30T07:53:46;22.77;;;11.93;;
73980;SDS011;62348;51.412;5.436;2023-09-30T07:56:12;22.60;;;11.90;;
73980;SDS011;62348;51.412;5.436;2023-09-30T07:58:39;21.27;;;11.48;;
73980;SDS011;62348;51.412;5.436;2023-09-30T08:01:04;27.35;;;12.20;;
73980;SDS011;62348;51.412;5.436;2023-09-30T08:03:30;22.85;;;12.30;;
73980;SDS011;62348;51.412;5.436;2023-09-30T08:05:55;19.85;;;12.10;;
73980;SDS011;62348;51.412;5.436;2023-09-30T08:08:21;19.30;;;11.15;;
73980;SDS011;62348;51.412;5.436;2023-09-30T08:10:47;18.95;;;11.27;;
73980;SDS011;62348;51.412;5.436;2023-09-30T08:13:13;19.02;;;11.32;;
73980;SDS011;62348;51.412;5.436;2023-09-30T08:15:38;21.48;;;10.88;;
73980;SDS011;62348;51.412;5.436;2023-09-30T08:18:04;18.80;;;10.90;;
73980;SDS011;62348;51.412;5.436;2023-09-30T08:20:31;21.08;;;10.57;;
73980;SDS011;62348;51.412;5.436;2023-09-30T08:22:56;18.58;;;10.82;;
73980;SDS011;62348;51.412;5.436;2023-09-30T08:25:22;27.45;;;11.18;;
73980;SDS011;62348;51.412;5.436;2023-09-30T08:27:47;23.77;;;11.07;;
73980;SDS011;62348;51.412;5.436;2023-09-30T08:30:14;22.05;;;10.50;;
73980;SDS011;62348;51.412;5.436;2023-09-30T08:32:40;19.35;;;10.90;;
73980;SDS011;62348;51.412;5.436;2023-09-30T08:35:06;26.38;;;11.02;;
73980;SDS011;62348;51.412;5.436;2023-09-30T08:37:32;24.45;;;10.80;;
73980;SDS011;62348;51.412;5.436;2023-09-30T08:39:58;23.00;;;10.77;;
73980;SDS011;62348;51.412;5.436;2023-09-30T08:42:23;22.10;;;11.13;;
73980;SDS011;62348;51.412;5.436;2023-09-30T08:44:54;21.48;;;10.63;;
73980;SDS011;62348;51.412;5.436;2023-09-30T08:47:20;28.25;;;11.23;;
73980;SDS011;62348;51.412;5.436;2023-09-30T08:49:47;22.40;;;10.88;;
73980;SDS011;62348;51.412;5.436;2023-09-30T08:52:16;23.17;;;10.85;;
73980;SDS011;62348;51.412;5.436;2023-09-30T08:54:42;19.48;;;9.63;;
73980;SDS011;62348;51.412;5.436;2023-09-30T08:57:09;18.40;;;8.85;;
73980;SDS011;62348;51.412;5.436;2023-09-30T08:59:35;21.92;;;9.13;;
73980;SDS011;62348;51.412;5.436;2023-09-30T09:02:01;20.65;;;9.13;;
73980;SDS011;62348;51.412;5.436;2023-09-30T09:04:26;24.70;;;10.07;;
73980;SDS011;62348;51.412;5.436;2023-09-30T09:06:56;24.55;;;11.00;;
73980;SDS011;62348;51.412;5.436;2023-09-30T09:09:21;18.35;;;9.45;;
73980;SDS011;62348;51.412;5.436;2023-09-30T09:11:47;18.33;;;9.20;;
73980;SDS011;62348;51.412;5.436;2023-09-30T09:14:13;16.65;;;8.98;;
73980;SDS011;62348;51.412;5.436;2023-09-30T09:16:52;19.30;;;10.10;;
73980;SDS011;62348;51.412;5.436;2023-09-30T09:19:19;17.70;;;9.07;;
73980;SDS011;62348;51.412;5.436;2023-09-30T09:21:59;20.60;;;8.63;;
73980;SDS011;62348;51.412;5.436;2023-09-30T09:24:29;17.67;;;8.32;;
73980;SDS011;62348;51.412;5.436;2023-09-30T09:27:07;11.82;;;7.90;;
73980;SDS011;62348;51.412;5.436;2023-09-30T09:29:34;15.98;;;7.95;;
73980;SDS011;62348;51.412;5.436;2023-09-30T09:32:34;13.23;;;6.55;;
73980;SDS011;62348;51.412;5.436;2023-09-30T09:34:59;16.15;;;7.20;;
73980;SDS011;62348;51.412;5.436;2023-09-30T09:37:26;12.43;;;6.63;;
73980;SDS011;62348;51.412;5.436;2023-09-30T09:39:53;14.57;;;6.50;;
73980;SDS011;62348;51.412;5.436;2023-09-30T09:42:24;11.75;;;6.80;;
73980;SDS011;62348;51.412;5.436;2023-09-30T09:44:54;11.32;;;5.80;;
73980;SDS011;62348;51.412;5.436;2023-09-30T09:47:24;12.45;;;6.55;;
73980;SDS011;62348;51.412;5.436;2023-09-30T09:49:50;14.95;;;5.75;;
73980;SDS011;62348;51.412;5.436;2023-09-30T09:52:18;11.10;;;5.53;;
73980;SDS011;62348;51.412;5.436;2023-09-30T09:54:45;13.10;;;6.10;;
73980;SDS011;62348;51.412;5.436;2023-09-30T09:57:11;11.57;;;5.07;;
73980;SDS011;62348;51.412;5.436;2023-09-30T09:59:38;14.13;;;5.07;;
73980;SDS011;62348;51.412;5.436;2023-09-30T10:02:09;16.98;;;5.63;;
73980;SDS011;62348;51.412;5.436;2023-09-30T10:04:37;15.35;;;4.72;;
73980;SDS011;62348;51.412;5.436;2023-09-30T10:07:03;11.30;;;4.63;;
73980;SDS011;62348;51.412;5.436;2023-09-30T10:09:31;8.65;;;4.43;;
73980;SDS011;62348;51.412;5.436;2023-09-30T10:12:00;10.90;;;4.32;;
73980;SDS011;62348;51.412;5.436;2023-09-30T10:14:30;7.88;;;4.03;;
73980;SDS011;62348;51.412;5.436;2023-09-30T10:16:57;10.43;;;4.45;;
73980;SDS011;62348;51.412;5.436;2023-09-30T10:19:23;8.13;;;3.53;;
73980;SDS011;62348;51.412;5.436;2023-09-30T10:24:45;9.35;;;4.25;;
73980;SDS011;62348;51.412;5.436;2023-09-30T10:40:46;13.68;;;5.07;;
73980;SDS011;62348;51.412;5.436;2023-09-30T10:46:02;10.60;;;4.50;;
73980;SDS011;62348;51.412;5.436;2023-09-30T10:48:32;9.88;;;4.13;;
73980;SDS011;62348;51.412;5.436;2023-09-30T10:51:00;12.52;;;4.68;;
73980;SDS011;62348;51.412;5.436;2023-09-30T10:53:29;8.18;;;3.72;;
73980;SDS011;62348;51.412;5.436;2023-09-30T10:55:58;12.93;;;4.88;;
73980;SDS011;62348;51.412;5.436;2023-09-30T11:01:20;13.07;;;4.97;;
73980;SDS011;62348;51.412;5.436;2023-09-30T11:03:47;7.97;;;4.15;;
73980;SDS011;62348;51.412;5.436;2023-09-30T11:06:17;10.50;;;4.18;;
73980;SDS011;62348;51.412;5.436;2023-09-30T11:11:58;6.63;;;3.45;;
73980;SDS011;62348;51.412;5.436;2023-09-30T11:16:45;6.93;;;3.65;;
73980;SDS011;62348;51.412;5.436;2023-09-30T11:19:11;6.38;;;3.30;;
73980;SDS011;62348;51.412;5.436;2023-09-30T11:21:38;6.30;;;3.33;;
73980;SDS011;62348;51.412;5.436;2023-09-30T11:24:04;8.63;;;3.65;;
73980;SDS011;62348;51.412;5.436;2023-09-30T11:26:31;9.98;;;3.38;;
73980;SDS011;62348;51.412;5.436;2023-09-30T11:29:04;8.45;;;3.65;;
73980;SDS011;62348;51.412;5.436;2023-09-30T11:31:39;7.57;;;3.13;;
73980;SDS011;62348;51.412;5.436;2023-09-30T11:34:06;7.22;;;3.35;;
73980;SDS011;62348;51.412;5.436;2023-09-30T11:36:36;7.18;;;3.38;;
73980;SDS011;62348;51.412;5.436;2023-09-30T11:39:02;7.40;;;2.85;;
73980;SDS011;62348;51.412;5.436;2023-09-30T11:41:41;8.90;;;3.92;;
73980;SDS011;62348;51.412;5.436;2023-09-30T11:44:09;10.07;;;3.20;;
73980;SDS011;62348;51.412;5.436;2023-09-30T11:46:52;7.43;;;2.80;;
73980;SDS011;62348;51.412;5.436;2023-09-30T11:49:29;7.43;;;2.83;;
73980;SDS011;62348;51.412;5.436;2023-09-30T11:52:13;5.90;;;2.58;;
73980;SDS011;62348;51.412;5.436;2023-09-30T11:54:44;12.18;;;3.72;;
73980;SDS011;62348;51.412;5.436;2023-09-30T11:57:11;4.90;;;3.00;;
73980;SDS011;62348;51.412;5.436;2023-09-30T11:59:42;5.37;;;3.57;;
73980;SDS011;62348;51.412;5.436;2023-09-30T12:02:10;7.80;;;3.17;;
73980;SDS011;62348;51.412;5.436;2023-09-30T12:04:36;7.82;;;3.00;;
73980;SDS011;62348;51.412;5.436;2023-09-30T12:07:05;7.40;;;3.47;;
73980;SDS011;62348;51.412;5.436;2023-09-30T12:09:33;7.18;;;3.20;;
73980;SDS011;62348;51.412;5.436;2023-09-30T12:12:02;6.32;;;2.80;;
73980;SDS011;62348;51.412;5.436;2023-09-30T12:14:28;5.90;;;3.00;;
73980;SDS011;62348;51.412;5.436;2023-09-30T12:16:58;7.40;;;3.10;;
73980;SDS011;62348;51.412;5.436;2023-09-30T12:19:23;6.05;;;3.15;;
73980;SDS011;62348;51.412;5.436;2023-09-30T12:21:51;7.18;;;3.25;;
73980;SDS011;62348;51.412;5.436;2023-09-30T12:24:17;7.45;;;3.50;;
73980;SDS011;62348;51.412;5.436;2023-09-30T12:26:49;6.93;;;2.95;;
73980;SDS011;62348;51.412;5.436;2023-09-30T12:29:15;7.70;;;3.58;;
73980;SDS011;62348;51.412;5.436;2023-09-30T12:31:43;5.97;;;3.10;;
73980;SDS011;62348;51.412;5.436;2023-09-30T12:34:12;5.30;;;2.47;;
73980;SDS011;62348;51.412;5.436;2023-09-30T12:36:41;8.02;;;3.70;;
73980;SDS011;62348;51.412;5.436;2023-09-30T12:39:08;7.45;;;3.15;;
73980;SDS011;62348;51.412;5.436;2023-09-30T12:41:40;6.00;;;2.63;;
73980;SDS011;62348;51.412;5.436;2023-09-30T12:44:07;6.13;;;3.42;;
73980;SDS011;62348;51.412;5.436;2023-09-30T12:46:33;7.32;;;2.88;;
73980;SDS011;62348;51.412;5.436;2023-09-30T12:49:05;7.80;;;3.42;;
73980;SDS011;62348;51.412;5.436;2023-09-30T12:51:32;8.43;;;2.95;;
73980;SDS011;62348;51.412;5.436;2023-09-30T12:53:58;8.10;;;2.97;;
73980;SDS011;62348;51.412;5.436;2023-09-30T12:56:24;9.88;;;3.05;;
73980;SDS011;62348;51.412;5.436;2023-09-30T12:58:49;12.88;;;3.15;;
73980;SDS011;62348;51.412;5.436;2023-09-30T13:01:15;9.40;;;2.75;;
73980;SDS011;62348;51.412;5.436;2023-09-30T13:03:43;8.93;;;3.45;;
73980;SDS011;62348;51.412;5.436;2023-09-30T13:06:09;8.32;;;2.63;;
73980;SDS011;62348;51.412;5.436;2023-09-30T13:08:34;6.47;;;2.85;;
73980;SDS011;62348;51.412;5.436;2023-09-30T13:11:01;12.30;;;3.05;;
73980;SDS011;62348;51.412;5.436;2023-09-30T13:13:30;7.85;;;3.22;;
73980;SDS011;62348;51.412;5.436;2023-09-30T13:15:58;5.53;;;2.95;;
73980;SDS011;62348;51.412;5.436;2023-09-30T13:18:24;6.50;;;3.00;;
73980;SDS011;62348;51.412;5.436;2023-09-30T13:20:50;10.48;;;3.65;;
73980;SDS011;62348;51.412;5.436;2023-09-30T13:23:17;4.50;;;2.95;;
73980;SDS011;62348;51.412;5.436;2023-09-30T13:25:43;6.90;;;2.97;;
73980;SDS011;62348;51.412;5.436;2023-09-30T13:28:09;8.18;;;3.47;;
73980;SDS011;62348;51.412;5.436;2023-09-30T13:30:35;8.50;;;3.42;;
73980;SDS011;62348;51.412;5.436;2023-09-30T13:33:01;11.63;;;4.05;;
73980;SDS011;62348;51.412;5.436;2023-09-30T13:35:26;6.45;;;3.15;;
73980;SDS011;62348;51.412;5.436;2023-09-30T13:37:52;6.93;;;3.20;;
73980;SDS011;62348;51.412;5.436;2023-09-30T13:40:17;10.20;;;3.50;;
73980;SDS011;62348;51.412;5.436;2023-09-30T13:42:43;7.45;;;3.67;;
73980;SDS011;62348;51.412;5.436;2023-09-30T13:45:10;6.82;;;3.20;;
73980;SDS011;62348;51.412;5.436;2023-09-30T13:47:36;5.35;;;2.75;;
73980;SDS011;62348;51.412;5.436;2023-09-30T13:50:02;7.47;;;3.25;;
73980;SDS011;62348;51.412;5.436;2023-09-30T13:52:32;6.47;;;3.20;;
73980;SDS011;62348;51.412;5.436;2023-09-30T13:54:59;6.78;;;3.15;;
73980;SDS011;62348;51.412;5.436;2023-09-30T13:57:24;6.70;;;3.20;;
73980;SDS011;62348;51.412;5.436;2023-09-30T13:59:50;6.07;;;2.90;;
73980;SDS011;62348;51.412;5.436;2023-09-30T14:02:15;5.15;;;3.17;;
73980;SDS011;62348;51.412;5.436;2023-09-30T14:04:41;5.43;;;3.35;;
73980;SDS011;62348;51.412;5.436;2023-09-30T14:07:06;4.88;;;2.72;;
73980;SDS011;62348;51.412;5.436;2023-09-30T14:09:33;6.45;;;3.35;;
73980;SDS011;62348;51.412;5.436;2023-09-30T14:11:59;5.72;;;3.85;;
73980;SDS011;62348;51.412;5.436;2023-09-30T14:14:24;7.90;;;3.42;;
73980;SDS011;62348;51.412;5.436;2023-09-30T14:16:50;4.88;;;3.08;;
73980;SDS011;62348;51.412;5.436;2023-09-30T14:19:17;8.48;;;3.28;;
73980;SDS011;62348;51.412;5.436;2023-09-30T14:21:42;6.20;;;3.20;;
73980;SDS011;62348;51.412;5.436;2023-09-30T14:24:07;6.22;;;3.75;;
73980;SDS011;62348;51.412;5.436;2023-09-30T14:26:33;8.50;;;4.63;;
73980;SDS011;62348;51.412;5.436;2023-09-30T14:28:59;8.45;;;4.13;;
73980;SDS011;62348;51.412;5.436;2023-09-30T14:31:24;6.85;;;4.05;;
73980;SDS011;62348;51.412;5.436;2023-09-30T14:33:50;8.65;;;4.28;;
73980;SDS011;62348;51.412;5.436;2023-09-30T14:36:16;12.13;;;5.72;;
73980;SDS011;62348;51.412;5.436;2023-09-30T14:38:43;8.82;;;6.07;;
73980;SDS011;62348;51.412;5.436;2023-09-30T14:41:10;9.68;;;4.85;;
73980;SDS011;62348;51.412;5.436;2023-09-30T14:43:37;7.97;;;4.70;;
73980;SDS011;62348;51.412;5.436;2023-09-30T14:46:03;8.65;;;5.35;;
73980;SDS011;62348;51.412;5.436;2023-09-30T14:48:29;8.07;;;4.72;;
73980;SDS011;62348;51.412;5.436;2023-09-30T14:50:54;8.10;;;5.80;;
73980;SDS011;62348;51.412;5.436;2023-09-30T14:53:21;7.45;;;4.95;;
73980;SDS011;62348;51.412;5.436;2023-09-30T14:55:47;7.43;;;5.65;;
73980;SDS011;62348;51.412;5.436;2023-09-30T14:58:13;7.20;;;5.03;;
73980;SDS011;62348;51.412;5.436;2023-09-30T15:00:38;10.45;;;5.05;;
73980;SDS011;62348;51.412;5.436;2023-09-30T15:03:03;10.57;;;5.00;;